Time;durP1;ratioP1;P1;durP2;ratioP2;P2;SDS_P1;SDS_P2;PMS_P1;PMS_P2;Temp;Humidity;BMP_temperature;BMP_pressure;BME280_temperature;BME280_humidity;BME280_pressure;Samples;Min_cycle;Max_cycle;Signal;HPM_P1;HPM_P2
2024/04/20 00:01:15;;;;;;;12.57;3.40;;;5.80;99.90;;;;;;5318718;26;20472;-72
2024/04/20 00:03:44;;;;;;;10.77;3.30;;;5.70;99.90;;;;;;5335743;26;20465;-72
2024/04/20 00:06:17;;;;;;;12.50;3.33;;;5.70;99.90;;;;;;5331838;26;21094;-72
2024/04/20 00:08:47;;;;;;;11.53;3.03;;;5.70;99.90;;;;;;5334676;26;20474;-72
2024/04/20 00:11:19;;;;;;;10.33;2.97;;;5.70;99.90;;;;;;5335831;26;20564;-72
2024/04/20 00:13:51;;;;;;;11.47;3.17;;;5.60;99.90;;;;;;5335555;26;20828;-71
2024/04/20 00:16:20;;;;;;;10.87;3.20;;;5.60;99.90;;;;;;5332376;26;20483;-71
2024/04/20 00:18:50;;;;;;;10.37;2.30;;;5.60;99.90;;;;;;5334313;26;20479;-71
2024/04/20 00:21:23;;;;;;;11.23;2.90;;;5.60;99.90;;;;;;5336195;26;20467;-71
2024/04/20 00:23:53;;;;;;;8.67;2.67;;;5.50;99.90;;;;;;5336154;26;20469;-71
2024/04/20 00:26:22;;;;;;;10.67;2.77;;;5.50;99.90;;;;;;5335604;26;20516;-71
2024/04/20 00:28:52;;;;;;;12.43;3.10;;;5.50;99.90;;;;;;5334927;26;20478;-72
2024/04/20 00:31:22;;;;;;;11.67;2.83;;;5.50;99.90;;;;;;5330110;26;20478;-71
2024/04/20 00:33:51;;;;;;;10.30;2.90;;;5.40;99.90;;;;;;5327133;26;20579;-71
2024/04/20 00:36:24;;;;;;;11.90;2.63;;;5.40;99.90;;;;;;5339034;26;20511;-71
2024/04/20 00:38:55;;;;;;;9.43;2.13;;;5.40;99.90;;;;;;5338099;26;20535;-72
2024/04/20 00:41:25;;;;;;;10.13;2.10;;;5.30;99.90;;;;;;5338674;26;20877;-72
2024/04/20 00:43:55;;;;;;;11.03;2.40;;;5.30;99.90;;;;;;5351693;26;20537;-71
2024/04/20 00:46:26;;;;;;;8.17;2.50;;;5.40;99.90;;;;;;5339182;26;20483;-72
2024/04/20 00:48:57;;;;;;;9.73;2.73;;;5.30;99.90;;;;;;5337789;26;20534;-71
2024/04/20 00:51:29;;;;;;;9.70;2.60;;;5.30;99.90;;;;;;5340188;26;20486;-71
2024/04/20 00:54:01;;;;;;;8.97;2.13;;;5.30;99.90;;;;;;5342102;26;20472;-71
2024/04/20 00:56:33;;;;;;;11.20;2.20;;;5.30;99.90;;;;;;5341543;26;20476;-70
2024/04/20 00:59:03;;;;;;;10.63;2.43;;;5.20;99.90;;;;;;5340699;26;20587;-68
2024/04/20 01:01:33;;;;;;;11.43;2.50;;;5.30;99.90;;;;;;5341673;26;20486;-71
2024/04/20 01:04:03;;;;;;;11.07;2.00;;;5.30;99.90;;;;;;5339990;26;20515;-70
2024/04/20 01:06:35;;;;;;;11.77;2.60;;;5.30;99.90;;;;;;5340578;26;20523;-71
2024/04/20 01:09:03;;;;;;;16.27;3.13;;;5.20;99.90;;;;;;5340245;26;20523;-71
2024/04/20 01:11:33;;;;;;;9.40;1.70;;;5.20;99.90;;;;;;5340701;26;20531;-70
2024/04/20 01:14:03;;;;;;;8.97;2.00;;;5.20;99.90;;;;;;5338657;26;20510;-70
2024/04/20 01:16:33;;;;;;;10.33;2.37;;;5.10;99.90;;;;;;5330198;26;20483;-70
2024/04/20 01:19:02;;;;;;;12.43;2.20;;;5.10;99.90;;;;;;5340044;26;20475;-69
2024/04/20 01:21:35;;;;;;;13.70;2.57;;;5.00;99.90;;;;;;5340588;26;20479;-71
2024/04/20 01:24:08;;;;;;;10.17;2.20;;;5.00;99.90;;;;;;5340668;26;20467;-70
2024/04/20 01:26:40;;;;;;;9.70;1.47;;;5.00;99.90;;;;;;5340917;26;20475;-71
2024/04/20 01:29:10;;;;;;;10.27;2.20;;;5.00;99.90;;;;;;5339394;26;20479;-71
2024/04/20 01:31:40;;;;;;;12.70;2.70;;;5.00;99.90;;;;;;5340770;26;20459;-71
2024/04/20 01:34:10;;;;;;;12.63;2.00;;;4.90;99.90;;;;;;5340069;26;20493;-71
2024/04/20 01:36:39;;;;;;;13.13;2.70;;;4.90;99.90;;;;;;5338928;26;20472;-71
2024/04/20 01:39:09;;;;;;;14.93;1.60;;;5.00;99.90;;;;;;5336854;26;20548;-71
2024/04/20 01:41:42;;;;;;;10.10;1.90;;;5.00;99.90;;;;;;5339917;26;20533;-71
2024/04/20 01:44:11;;;;;;;7.10;1.53;;;5.00;99.90;;;;;;5340332;26;20479;-70
2024/04/20 01:46:41;;;;;;;8.43;1.90;;;5.10;99.90;;;;;;5340698;26;20823;-69
2024/04/20 01:49:11;;;;;;;8.73;2.00;;;5.10;99.90;;;;;;5340134;26;20528;-70
2024/04/20 01:51:40;;;;;;;12.70;2.57;;;5.10;99.90;;;;;;5339466;26;20484;-69
2024/04/20 01:54:10;;;;;;;9.70;2.43;;;5.20;99.90;;;;;;5340310;26;20471;-70
2024/04/20 01:56:43;;;;;;;11.53;2.53;;;5.10;99.90;;;;;;5340316;26;20468;-69
2024/04/20 01:59:12;;;;;;;12.37;2.10;;;5.10;99.90;;;;;;5339159;26;20477;-71
2024/04/20 02:01:46;;;;;;;8.13;2.00;;;5.20;99.90;;;;;;5340222;26;20813;-70
2024/04/20 02:04:15;;;;;;;8.20;1.90;;;5.20;99.90;;;;;;5326019;26;20640;-72
2024/04/20 02:06:45;;;;;;;9.40;2.37;;;5.20;99.90;;;;;;5338969;26;20463;-71
2024/04/20 02:09:15;;;;;;;9.60;1.87;;;5.20;99.90;;;;;;5338407;26;20592;-71
2024/04/20 02:11:47;;;;;;;8.67;2.63;;;5.20;99.90;;;;;;5340093;26;20516;-71
2024/04/20 02:14:18;;;;;;;10.63;2.50;;;5.20;99.90;;;;;;5339830;26;21089;-71
2024/04/20 02:16:47;;;;;;;10.60;2.00;;;5.20;99.90;;;;;;5330599;26;20476;-70
2024/04/20 02:19:17;;;;;;;8.60;2.00;;;5.20;99.90;;;;;;5338792;26;20477;-71
2024/04/20 02:21:47;;;;;;;11.93;4.00;;;5.20;99.90;;;;;;5339828;26;21096;-70
2024/04/20 02:24:17;;;;;;;9.33;2.70;;;5.20;99.90;;;;;;5339681;26;20535;-71
2024/04/20 02:26:49;;;;;;;8.10;2.00;;;5.20;99.90;;;;;;5339664;26;20468;-72
2024/04/20 02:29:19;;;;;;;9.37;1.90;;;5.30;99.90;;;;;;5338592;26;20479;-71
2024/04/20 02:31:48;;;;;;;8.37;1.83;;;5.20;99.90;;;;;;5339842;26;20472;-71
2024/04/20 02:34:18;;;;;;;11.97;1.97;;;5.20;99.90;;;;;;5339557;26;20520;-71
2024/04/20 02:36:48;;;;;;;9.27;1.73;;;5.20;99.90;;;;;;5340113;26;20817;-71
2024/04/20 02:39:18;;;;;;;12.80;4.53;;;5.20;99.90;;;;;;5338637;26;20468;-71
2024/04/20 02:41:50;;;;;;;10.20;2.23;;;5.20;99.90;;;;;;5339598;26;20512;-70
2024/04/20 02:44:20;;;;;;;12.00;2.20;;;5.20;99.90;;;;;;5338804;26;20472;-71
2024/04/20 02:46:49;;;;;;;9.87;1.93;;;5.20;99.90;;;;;;5339168;26;20879;-70
2024/04/20 02:49:19;;;;;;;9.13;1.80;;;5.20;99.90;;;;;;5338488;26;20548;-71
2024/04/20 02:51:49;;;;;;;9.00;1.70;;;5.20;99.90;;;;;;5339523;26;20518;-71
2024/04/20 02:54:17;;;;;;;11.87;1.93;;;5.20;99.90;;;;;;5338454;26;20485;-71
2024/04/20 02:56:49;;;;;;;12.60;2.07;;;5.10;99.90;;;;;;5339496;26;20528;-70
2024/04/20 02:59:19;;;;;;;10.10;1.80;;;5.10;99.90;;;;;;5338102;26;20832;-71
2024/04/20 03:01:49;;;;;;;10.87;1.73;;;5.00;99.90;;;;;;5339544;26;20472;-70
2024/04/20 03:04:19;;;;;;;11.03;2.07;;;5.00;99.90;;;;;;5339046;26;20970;-71
2024/04/20 03:06:48;;;;;;;10.40;1.90;;;5.00;99.90;;;;;;5339399;26;20543;-70
2024/04/20 03:09:18;;;;;;;10.93;2.13;;;5.00;99.90;;;;;;5337526;26;20537;-71
2024/04/20 03:11:50;;;;;;;9.17;2.00;;;5.00;99.90;;;;;;5338951;26;20476;-70
2024/04/20 03:14:20;;;;;;;11.63;2.53;;;5.00;99.90;;;;;;5339121;26;20476;-70
2024/04/20 03:16:50;;;;;;;10.30;1.60;;;4.90;99.90;;;;;;5338991;26;20516;-70
2024/04/20 03:19:19;;;;;;;8.80;2.07;;;4.90;99.90;;;;;;5334924;26;20540;-70
2024/04/20 03:21:49;;;;;;;13.00;2.60;;;4.80;99.90;;;;;;5338080;26;20456;-70
2024/04/20 03:24:19;;;;;;;14.43;2.17;;;4.80;99.90;;;;;;5338600;26;20475;-70
2024/04/20 03:26:51;;;;;;;13.63;2.43;;;4.80;99.90;;;;;;5338504;26;20519;-70
2024/04/20 03:29:21;;;;;;;11.13;2.20;;;4.90;99.90;;;;;;5337780;26;20483;-70
2024/04/20 03:31:51;;;;;;;10.17;1.97;;;4.90;99.90;;;;;;5339042;26;20472;-70
2024/04/20 03:34:21;;;;;;;9.00;2.07;;;4.90;99.90;;;;;;5335248;26;20527;-70
2024/04/20 03:36:51;;;;;;;15.37;3.60;;;4.90;99.90;;;;;;5339021;26;20699;-69
2024/04/20 03:39:22;;;;;;;12.70;2.33;;;4.90;99.90;;;;;;5338127;26;20849;-70
2024/04/20 03:41:54;;;;;;;16.60;2.27;;;4.90;99.90;;;;;;5338747;26;20469;-70
2024/04/20 03:44:24;;;;;;;9.77;2.17;;;5.00;99.90;;;;;;5339350;26;20469;-70
2024/04/20 03:46:54;;;;;;;9.20;2.30;;;5.00;99.90;;;;;;5338617;26;20516;-70
2024/04/20 03:49:24;;;;;;;10.50;2.20;;;5.00;99.90;;;;;;5337473;26;20479;-70
2024/04/20 03:51:54;;;;;;;9.47;1.70;;;5.00;99.90;;;;;;5338565;26;20524;-70
2024/04/20 03:54:24;;;;;;;8.77;2.50;;;4.90;99.90;;;;;;5338317;26;20847;-69
2024/04/20 03:56:56;;;;;;;10.60;2.10;;;4.90;99.90;;;;;;5334770;26;20467;-69
2024/04/20 03:59:26;;;;;;;10.97;2.10;;;4.90;99.90;;;;;;5337962;26;20520;-70
2024/04/20 04:01:55;;;;;;;11.90;2.30;;;4.90;99.90;;;;;;5338405;26;20459;-70
2024/04/20 04:04:26;;;;;;;8.90;2.47;;;4.90;99.90;;;;;;5340297;26;20532;-70
2024/04/20 04:06:56;;;;;;;10.20;2.10;;;4.80;99.90;;;;;;5341324;26;20595;-69
2024/04/20 04:09:26;;;;;;;12.77;2.57;;;4.90;99.90;;;;;;5341462;26;20810;-70
2024/04/20 04:11:58;;;;;;;11.53;2.57;;;4.80;99.90;;;;;;5341512;26;20459;-71
2024/04/20 04:14:28;;;;;;;11.00;2.83;;;4.80;99.90;;;;;;5341106;26;20456;-70
2024/04/20 04:16:58;;;;;;;11.73;2.10;;;4.90;99.90;;;;;;5342014;26;20531;-69
2024/04/20 04:19:27;;;;;;;10.60;2.40;;;4.90;99.90;;;;;;5340997;26;20548;-69
2024/04/20 04:21:59;;;;;;;14.40;2.60;;;4.90;99.90;;;;;;5338355;26;20523;-69
2024/04/20 04:24:29;;;;;;;10.20;2.20;;;4.90;99.90;;;;;;5341897;26;20480;-68
2024/04/20 04:27:13;;;;;;;9.43;2.33;;;5.00;99.90;;;;;;5341560;26;20555;-69
2024/04/20 04:29:43;;;;;;;14.37;2.17;;;5.00;99.90;;;;;;5340995;26;20471;-69
2024/04/20 04:32:13;;;;;;;15.47;2.67;;;5.00;99.90;;;;;;5341110;26;20521;-71
2024/04/20 04:34:42;;;;;;;14.57;3.10;;;5.00;99.90;;;;;;5341399;26;20853;-71
2024/04/20 04:37:12;;;;;;;8.80;2.37;;;5.00;99.90;;;;;;5337315;26;21079;-70
2024/04/20 04:39:42;;;;;;;10.07;1.90;;;4.90;99.90;;;;;;5340174;26;20902;-69
2024/04/20 04:42:14;;;;;;;17.60;2.67;;;4.90;99.90;;;;;;5338296;26;20589;-69
2024/04/20 04:44:44;;;;;;;12.87;2.30;;;4.90;99.90;;;;;;5331653;26;21296;-69
2024/04/20 04:47:14;;;;;;;14.07;2.60;;;4.90;99.90;;;;;;5340889;26;20468;-70
2024/04/20 04:49:44;;;;;;;10.20;2.40;;;4.80;99.90;;;;;;5339834;26;20519;-70
2024/04/20 04:52:13;;;;;;;10.60;2.47;;;4.70;99.90;;;;;;5340559;26;20527;-70
2024/04/20 04:54:43;;;;;;;15.53;2.80;;;4.60;99.90;;;;;;5332633;26;20533;-69
2024/04/20 04:57:15;;;;;;;11.07;2.10;;;4.60;99.90;;;;;;5340321;26;20580;-70
2024/04/20 04:59:45;;;;;;;11.70;2.70;;;4.50;99.90;;;;;;5340117;26;20547;-70
2024/04/20 05:02:15;;;;;;;9.73;2.67;;;4.50;99.90;;;;;;5340400;26;21027;-70
2024/04/20 05:04:48;;;;;;;11.33;2.60;;;4.50;99.90;;;;;;5340254;26;20474;-70
2024/04/20 05:07:18;;;;;;;8.27;2.10;;;4.50;99.90;;;;;;5340705;26;20542;-69
2024/04/20 05:09:48;;;;;;;8.90;2.10;;;4.50;99.90;;;;;;5341135;26;20565;-70
2024/04/20 05:12:20;;;;;;;10.03;2.53;;;4.60;99.90;;;;;;5341399;26;20479;-70
2024/04/20 05:14:51;;;;;;;8.43;2.40;;;4.50;99.90;;;;;;5341085;26;20493;-70
2024/04/20 05:17:21;;;;;;;8.40;2.10;;;4.40;99.90;;;;;;5340625;26;20472;-71
2024/04/20 05:19:51;;;;;;;11.07;2.30;;;4.40;99.90;;;;;;5340064;26;20475;-70
2024/04/20 05:22:21;;;;;;;11.97;2.40;;;4.50;99.90;;;;;;5340932;26;20483;-69
2024/04/20 05:24:50;;;;;;;10.03;1.87;;;4.40;99.90;;;;;;5340117;26;20475;-69
2024/04/20 05:27:23;;;;;;;11.70;3.20;;;4.60;99.90;;;;;;5340569;26;20548;-69
2024/04/20 05:29:53;;;;;;;10.80;2.30;;;4.50;99.90;;;;;;5340402;26;20813;-69
2024/04/20 05:32:23;;;;;;;10.10;2.27;;;4.50;99.90;;;;;;5340620;26;20467;-70
2024/04/20 05:34:52;;;;;;;9.50;2.10;;;4.60;99.90;;;;;;5340605;26;21102;-69
2024/04/20 05:37:25;;;;;;;11.90;2.60;;;4.70;99.90;;;;;;5340747;26;20526;-70
2024/04/20 05:39:54;;;;;;;10.27;2.80;;;4.70;99.90;;;;;;5339504;26;20485;-70
2024/04/20 05:42:27;;;;;;;9.77;2.60;;;4.70;99.90;;;;;;5341090;26;21165;-70
2024/04/20 05:44:57;;;;;;;12.43;2.53;;;4.80;99.90;;;;;;5340604;26;20472;-70
2024/04/20 05:47:27;;;;;;;10.03;2.47;;;4.90;99.90;;;;;;5339515;26;21002;-71
2024/04/20 05:49:57;;;;;;;10.20;2.27;;;4.90;99.90;;;;;;5347175;26;21036;-70
2024/04/20 05:52:27;;;;;;;8.00;2.13;;;5.00;99.90;;;;;;5327686;26;20518;-70
2024/04/20 05:54:57;;;;;;;10.10;3.20;;;5.00;99.90;;;;;;5341603;26;20535;-71
2024/04/20 05:57:30;;;;;;;8.57;2.13;;;5.00;99.90;;;;;;5340210;26;20579;-70
2024/04/20 05:59:59;;;;;;;12.63;2.60;;;5.00;99.90;;;;;;5346752;26;20477;-70
2024/04/20 06:02:31;;;;;;;12.73;3.70;;;5.10;99.90;;;;;;5339595;26;20472;-71
2024/04/20 06:05:02;;;;;;;7.70;2.43;;;5.10;99.90;;;;;;5330773;26;20455;-71
2024/04/20 06:07:33;;;;;;;9.20;2.20;;;5.20;99.90;;;;;;5339205;26;20523;-70
2024/04/20 06:10:02;;;;;;;11.90;2.40;;;5.20;99.90;;;;;;5338677;26;20480;-70
2024/04/20 06:12:35;;;;;;;8.00;2.00;;;5.20;99.90;;;;;;5339726;26;20580;-71
2024/04/20 06:15:05;;;;;;;9.20;2.30;;;5.30;99.90;;;;;;5339534;26;20467;-70
2024/04/20 06:17:35;;;;;;;9.20;2.53;;;5.20;99.90;;;;;;5339532;26;20472;-72
2024/04/20 06:20:05;;;;;;;8.20;2.50;;;5.20;99.90;;;;;;5338866;26;20833;-70
2024/04/20 06:22:34;;;;;;;11.47;3.20;;;5.20;99.90;;;;;;5339873;26;20522;-70
2024/04/20 06:25:05;;;;;;;8.30;2.53;;;5.10;99.90;;;;;;5339570;26;20477;-71
2024/04/20 06:27:37;;;;;;;10.33;2.63;;;5.10;99.90;;;;;;5338036;26;20492;-70
2024/04/20 06:30:09;;;;;;;10.73;3.27;;;5.20;99.90;;;;;;5338127;26;20527;-71
2024/04/20 06:32:38;;;;;;;8.50;2.53;;;5.30;99.90;;;;;;5338906;26;20467;-71
2024/04/20 06:35:08;;;;;;;9.93;3.13;;;5.40;99.90;;;;;;5339375;26;20529;-70
2024/04/20 06:37:38;;;;;;;11.63;3.07;;;5.50;99.90;;;;;;5339577;26;20536;-71
2024/04/20 06:40:08;;;;;;;14.00;3.23;;;5.60;99.90;;;;;;5337126;26;20854;-70
2024/04/20 06:42:43;;;;;;;10.97;2.97;;;5.70;99.90;;;;;;5339353;26;20516;-71
2024/04/20 06:45:12;;;;;;;9.70;3.10;;;5.80;99.90;;;;;;5339568;26;20480;-72
2024/04/20 06:47:43;;;;;;;8.20;2.30;;;5.90;99.90;;;;;;5339618;26;20524;-70
2024/04/20 06:50:17;;;;;;;9.63;2.63;;;5.80;99.90;;;;;;5338547;26;21088;-71
2024/04/20 06:52:47;;;;;;;9.80;2.90;;;5.80;99.90;;;;;;5339793;26;20819;-71
2024/04/20 06:55:18;;;;;;;8.80;2.57;;;5.80;99.90;;;;;;5339545;26;20478;-71
2024/04/20 06:57:50;;;;;;;8.90;2.40;;;5.80;99.90;;;;;;5339550;26;20869;-71
2024/04/20 07:00:20;;;;;;;8.57;2.30;;;5.70;99.90;;;;;;5338962;26;20581;-70
2024/04/20 07:02:50;;;;;;;8.33;2.27;;;5.60;99.90;;;;;;5339446;26;21024;-69
2024/04/20 07:05:19;;;;;;;10.13;2.90;;;5.70;99.90;;;;;;5339238;26;20516;-71
2024/04/20 07:07:49;;;;;;;8.70;2.00;;;5.80;99.90;;;;;;5339441;26;20516;-70
2024/04/20 07:10:19;;;;;;;8.93;2.90;;;6.10;99.90;;;;;;5338693;26;20472;-71
2024/04/20 07:12:51;;;;;;;7.43;1.83;;;6.60;99.90;;;;;;5338560;26;20478;-71
2024/04/20 07:15:21;;;;;;;9.90;2.10;;;6.60;99.90;;;;;;5338977;26;20485;-70
2024/04/20 07:17:51;;;;;;;10.83;2.43;;;6.50;99.90;;;;;;5337573;26;20472;-70
2024/04/20 07:20:21;;;;;;;9.17;2.07;;;6.40;99.90;;;;;;5336730;26;20469;-71
2024/04/20 07:22:50;;;;;;;9.57;2.40;;;6.40;99.90;;;;;;5339036;26;20544;-71
2024/04/20 07:25:20;;;;;;;8.57;2.33;;;6.50;99.90;;;;;;5329490;26;20470;-71
2024/04/20 07:27:52;;;;;;;9.20;2.77;;;6.60;99.90;;;;;;5338988;26;20826;-71
2024/04/20 07:30:22;;;;;;;10.13;2.43;;;6.70;99.90;;;;;;5338536;26;20471;-71
2024/04/20 07:32:52;;;;;;;8.27;2.43;;;6.60;99.90;;;;;;5339047;26;21350;-72
2024/04/20 07:35:21;;;;;;;8.60;2.40;;;6.50;99.90;;;;;;5338663;26;21045;-72
2024/04/20 07:37:51;;;;;;;8.13;2.87;;;6.70;99.90;;;;;;5338806;26;20466;-72
2024/04/20 07:40:21;;;;;;;8.80;2.87;;;6.60;99.90;;;;;;5336765;26;20474;-71
2024/04/20 07:42:54;;;;;;;9.97;2.97;;;6.60;99.90;;;;;;5339019;26;20472;-71
2024/04/20 07:45:24;;;;;;;7.47;2.27;;;6.70;99.90;;;;;;5337759;26;20482;-71
2024/04/20 07:47:54;;;;;;;9.13;2.83;;;6.60;99.90;;;;;;5337485;26;20557;-70
2024/04/20 07:50:24;;;;;;;10.10;2.67;;;6.60;99.90;;;;;;5322463;26;20538;-71
2024/04/20 07:52:54;;;;;;;11.80;3.07;;;6.90;99.90;;;;;;5336929;26;20477;-71
2024/04/20 07:55:25;;;;;;;8.90;3.00;;;7.20;99.90;;;;;;5336593;26;21158;-73
2024/04/20 07:57:57;;;;;;;10.03;3.50;;;7.40;99.90;;;;;;5335738;26;20478;-71
2024/04/20 08:00:28;;;;;;;8.50;3.20;;;7.50;99.90;;;;;;5335736;26;20467;-72
2024/04/20 08:02:58;;;;;;;10.60;3.03;;;7.60;99.90;;;;;;5336882;26;20463;-72
2024/04/20 08:05:28;;;;;;;8.37;3.40;;;7.60;99.90;;;;;;5336567;26;20471;-71
2024/04/20 08:07:58;;;;;;;10.57;3.43;;;7.30;99.90;;;;;;5335598;26;20561;-70
2024/04/20 08:10:28;;;;;;;12.77;3.87;;;7.10;99.90;;;;;;5335693;26;20482;-72
2024/04/20 08:13:01;;;;;;;10.03;3.20;;;7.10;99.90;;;;;;5336346;26;20537;-72
2024/04/20 08:15:31;;;;;;;8.57;3.27;;;7.20;99.90;;;;;;5336488;26;20550;-69
2024/04/20 08:18:00;;;;;;;7.80;2.80;;;7.10;99.90;;;;;;5335231;26;20519;-71
2024/04/20 08:20:30;;;;;;;8.17;2.70;;;7.20;99.90;;;;;;5333093;26;20567;-70
2024/04/20 08:23:00;;;;;;;9.90;3.57;;;7.40;99.90;;;;;;5337860;26;20468;-70
2024/04/20 08:25:30;;;;;;;8.70;2.90;;;7.80;99.90;;;;;;5337748;26;20469;-69
2024/04/20 08:28:02;;;;;;;8.03;2.33;;;7.80;99.90;;;;;;5337012;26;20469;-70
2024/04/20 08:30:32;;;;;;;9.17;2.60;;;7.70;99.90;;;;;;5333029;26;20455;-73
2024/04/20 08:33:02;;;;;;;7.80;2.40;;;7.60;99.90;;;;;;5337020;26;20582;-71
2024/04/20 08:35:32;;;;;;;8.57;2.40;;;7.60;99.90;;;;;;5335812;26;20664;-75
2024/04/20 08:38:01;;;;;;;8.03;2.57;;;7.80;99.90;;;;;;5337248;26;20474;-71
2024/04/20 08:40:34;;;;;;;14.30;3.23;;;7.90;99.90;;;;;;5323323;26;20471;-71
2024/04/20 08:43:07;;;;;;;8.90;2.73;;;8.00;99.90;;;;;;5337951;26;21019;-71
2024/04/20 08:45:40;;;;;;;7.73;2.63;;;7.90;99.90;;;;;;5337000;26;20487;-71
2024/04/20 08:48:12;;;;;;;9.40;3.17;;;8.00;99.90;;;;;;5336818;26;21230;-70
2024/04/20 08:50:42;;;;;;;9.20;2.60;;;8.10;99.90;;;;;;5337218;26;20927;-70
2024/04/20 08:53:13;;;;;;;12.90;3.20;;;7.80;99.90;;;;;;5340457;26;20845;-70
2024/04/20 08:55:42;;;;;;;8.23;3.10;;;7.50;99.90;;;;;;5341041;26;20471;-71
2024/04/20 08:58:18;;;;;;;8.57;3.10;;;7.30;99.90;;;;;;5338937;26;20478;-70
2024/04/20 09:00:52;;;;;;;9.30;3.03;;;7.40;99.90;;;;;;5340600;26;20869;-71
2024/04/20 09:03:22;;;;;;;9.40;3.43;;;7.60;99.90;;;;;;5344072;26;20479;-71
2024/04/20 09:05:55;;;;;;;8.83;3.23;;;7.80;99.90;;;;;;5354460;26;20478;-71
2024/04/20 09:08:26;;;;;;;8.50;3.23;;;8.10;99.90;;;;;;5346949;26;20477;-71
2024/04/20 09:10:56;;;;;;;9.60;3.80;;;8.20;99.90;;;;;;5346582;26;20365;-69
2024/04/20 09:13:28;;;;;;;10.83;2.93;;;8.20;99.90;;;;;;5345963;26;20750;-71
2024/04/20 09:15:58;;;;;;;9.47;2.60;;;8.40;99.90;;;;;;5357712;26;20609;-70
2024/04/20 09:18:27;;;;;;;7.90;2.50;;;8.40;99.90;;;;;;5362080;26;20479;-71
2024/04/20 09:21:00;;;;;;;8.10;3.27;;;8.10;99.90;;;;;;5342591;26;20474;-69
2024/04/20 09:23:29;;;;;;;7.97;2.83;;;7.70;99.90;;;;;;5351125;26;20473;-69
2024/04/20 09:26:00;;;;;;;8.07;2.60;;;7.50;99.90;;;;;;5352015;26;20482;-67
2024/04/20 09:28:38;;;;;;;8.13;3.20;;;7.50;99.90;;;;;;5351714;26;21258;-65
2024/04/20 09:31:07;;;;;;;10.20;2.50;;;7.80;99.90;;;;;;5344064;26;20847;-71
2024/04/20 09:33:38;;;;;;;8.70;2.40;;;8.80;99.90;;;;;;5349219;26;20529;-70
2024/04/20 09:36:09;;;;;;;7.80;2.70;;;9.90;99.90;;;;;;5344635;26;20543;-70
2024/04/20 09:38:38;;;;;;;9.83;2.30;;;10.50;99.90;;;;;;5348280;26;20530;-69
2024/04/20 09:41:10;;;;;;;7.60;2.50;;;10.30;99.90;;;;;;5351131;26;20474;-69
2024/04/20 09:43:45;;;;;;;9.17;3.10;;;9.90;99.90;;;;;;5340736;26;20525;-69
2024/04/20 09:46:15;;;;;;;7.30;3.20;;;9.30;99.90;;;;;;5338222;26;20508;-69
2024/04/20 09:48:46;;;;;;;7.13;2.80;;;9.10;99.90;;;;;;5337154;26;20531;-69
2024/04/20 09:51:24;;;;;;;8.20;3.80;;;8.70;99.90;;;;;;5341585;26;20589;-69
2024/04/20 09:53:55;;;;;;;8.83;3.03;;;8.30;99.90;;;;;;5339698;26;20615;-70
2024/04/20 09:56:26;;;;;;;10.10;3.10;;;8.20;99.90;;;;;;5345355;26;20662;-69
2024/04/20 09:59:00;;;;;;;8.60;3.03;;;8.10;99.90;;;;;;5341507;26;20538;-69
2024/04/20 10:01:32;;;;;;;8.60;2.97;;;8.20;99.90;;;;;;5342746;26;21017;-70
2024/04/20 10:04:03;;;;;;;9.90;2.50;;;9.00;99.90;;;;;;5346262;26;20535;-68
2024/04/20 10:06:34;;;;;;;7.77;2.10;;;9.40;99.90;;;;;;5352105;26;20467;-71
2024/04/20 10:09:05;;;;;;;8.03;2.40;;;9.60;99.90;;;;;;5350416;26;20984;-67
2024/04/20 10:11:36;;;;;;;8.40;2.50;;;9.20;98.60;;;;;;5344787;26;20867;-69
2024/04/20 10:14:10;;;;;;;7.03;2.10;;;9.00;98.40;;;;;;5348729;26;20480;-67
2024/04/20 10:16:40;;;;;;;6.67;1.63;;;9.70;96.30;;;;;;5333118;26;20467;-68
2024/04/20 10:19:10;;;;;;;7.90;1.70;;;9.60;94.40;;;;;;5346848;26;20539;-71
2024/04/20 10:21:41;;;;;;;11.70;2.47;;;9.20;93.60;;;;;;5348763;26;20477;-68
2024/04/20 10:24:11;;;;;;;7.80;2.43;;;9.10;93.70;;;;;;5342909;26;20481;-68
2024/04/20 10:26:45;;;;;;;8.03;2.37;;;9.00;96.00;;;;;;5341910;26;21157;-67
2024/04/20 10:29:24;;;;;;;8.20;2.70;;;9.10;99.90;;;;;;5340672;26;20529;-65
2024/04/20 10:32:02;;;;;;;11.53;3.43;;;8.80;99.90;;;;;;5342916;26;20521;-66
2024/04/20 10:34:32;;;;;;;10.50;2.80;;;8.70;99.90;;;;;;5341262;26;20463;-67
2024/04/20 10:37:02;;;;;;;8.70;2.70;;;8.80;99.90;;;;;;5351447;26;20547;-67
2024/04/20 10:39:33;;;;;;;9.07;2.17;;;9.00;98.60;;;;;;5348855;26;20903;-66
2024/04/20 10:42:07;;;;;;;7.07;1.97;;;9.10;99.90;;;;;;5345449;26;20985;-70
2024/04/20 10:44:40;;;;;;;7.40;1.90;;;9.50;99.50;;;;;;5343531;26;20533;-67
2024/04/20 10:47:10;;;;;;;11.20;2.23;;;9.70;98.50;;;;;;5345495;26;20469;-70
2024/04/20 10:49:46;;;;;;;8.80;2.30;;;9.80;97.50;;;;;;5346274;26;21021;-69
2024/04/20 10:52:21;;;;;;;7.50;2.30;;;9.70;96.90;;;;;;5341135;26;20939;-67
2024/04/20 10:54:51;;;;;;;9.70;2.00;;;9.50;97.00;;;;;;5330547;26;20515;-66
2024/04/20 10:57:24;;;;;;;6.17;1.40;;;9.60;99.50;;;;;;5333384;26;20596;-66
2024/04/20 10:59:57;;;;;;;9.80;2.30;;;9.90;96.70;;;;;;5334908;26;20485;-67
2024/04/20 11:02:28;;;;;;;6.87;1.73;;;10.10;94.80;;;;;;5334888;26;20550;-68
2024/04/20 11:04:58;;;;;;;6.60;1.60;;;10.40;93.90;;;;;;5333212;26;20482;-66
2024/04/20 11:07:28;;;;;;;7.17;1.70;;;10.30;92.70;;;;;;5336248;26;21081;-67
2024/04/20 11:09:58;;;;;;;8.27;1.77;;;9.90;94.40;;;;;;5335377;26;20485;-69
2024/04/20 11:12:28;;;;;;;9.13;2.07;;;10.20;92.30;;;;;;5336541;26;20470;-70
2024/04/20 11:15:09;;;;;;;11.47;3.23;;;10.20;93.70;;;;;;5336012;26;20475;-66
2024/04/20 11:17:39;;;;;;;8.50;2.40;;;10.20;94.80;;;;;;5337145;26;20708;-67
2024/04/20 11:20:10;;;;;;;8.67;2.77;;;10.30;94.30;;;;;;5335737;26;20488;-68
2024/04/20 11:22:40;;;;;;;9.03;2.17;;;10.10;94.60;;;;;;5336424;26;21031;-67
2024/04/20 11:25:11;;;;;;;10.03;2.77;;;10.30;94.40;;;;;;5327690;26;20522;-69
2024/04/20 11:27:42;;;;;;;7.60;1.90;;;10.80;95.70;;;;;;5329734;26;20474;-67
2024/04/20 11:30:12;;;;;;;8.20;2.40;;;10.90;91.90;;;;;;5327683;26;20539;-69
2024/04/20 11:32:42;;;;;;;10.57;2.37;;;10.60;92.50;;;;;;5335956;26;21062;-69
2024/04/20 11:35:12;;;;;;;8.60;2.57;;;10.60;92.20;;;;;;5332946;26;20476;-69
2024/04/20 11:37:43;;;;;;;7.07;2.13;;;11.00;93.10;;;;;;5317111;26;20516;-69
2024/04/20 11:40:13;;;;;;;8.23;2.70;;;11.50;92.10;;;;;;5328304;26;20475;-68
2024/04/20 11:42:44;;;;;;;7.70;2.37;;;11.40;91.10;;;;;;5334117;26;20568;-66
2024/04/20 11:45:17;;;;;;;7.97;1.80;;;10.90;91.90;;;;;;5332876;26;20452;-66
2024/04/20 11:47:46;;;;;;;8.10;1.67;;;10.90;93.20;;;;;;5333640;26;20684;-68
2024/04/20 11:50:18;;;;;;;8.87;1.90;;;10.80;90.80;;;;;;5338240;26;20527;-68
2024/04/20 11:55:41;;;;;;;6.80;2.00;;;10.50;91.40;;;;;;5337535;26;20466;-67
2024/04/20 11:58:11;;;;;;;8.80;1.73;;;10.60;91.20;;;;;;5331269;26;21190;-66
2024/04/20 12:00:47;;;;;;;6.93;1.50;;;10.20;90.10;;;;;;5340495;26;20497;-67
2024/04/20 12:03:20;;;;;;;8.40;1.77;;;10.00;90.20;;;;;;5336928;26;20523;-68
2024/04/20 12:05:50;;;;;;;10.53;2.47;;;10.00;90.70;;;;;;5332561;26;20481;-67
2024/04/20 12:08:20;;;;;;;7.40;2.00;;;10.00;88.90;;;;;;5331134;26;20481;-65
2024/04/20 12:10:50;;;;;;;8.73;2.60;;;10.10;88.30;;;;;;5336070;26;20487;-66
2024/04/20 12:13:20;;;;;;;8.70;2.10;;;10.30;87.80;;;;;;5335524;26;20470;-67
2024/04/20 12:15:53;;;;;;;7.40;2.40;;;10.60;86.50;;;;;;5338363;26;20491;-66
2024/04/20 12:18:23;;;;;;;7.07;1.90;;;10.60;90.20;;;;;;5335537;26;20494;-66
2024/04/20 12:20:52;;;;;;;8.50;2.10;;;10.60;89.30;;;;;;5336375;26;20477;-65
2024/04/20 12:23:22;;;;;;;7.97;2.10;;;10.30;89.80;;;;;;5328588;26;20535;-67
2024/04/20 12:25:52;;;;;;;7.77;2.40;;;10.30;91.10;;;;;;5328018;26;20471;-69
2024/04/20 12:28:22;;;;;;;6.97;2.30;;;10.30;89.60;;;;;;5333353;26;20534;-70
2024/04/20 12:30:54;;;;;;;7.70;2.50;;;10.50;91.00;;;;;;5336124;26;20593;-69
2024/04/20 12:33:24;;;;;;;7.30;2.17;;;10.70;87.40;;;;;;5334681;26;20531;-69
2024/04/20 12:35:53;;;;;;;6.83;1.70;;;10.70;86.50;;;;;;5333706;26;20516;-68
2024/04/20 12:38:23;;;;;;;7.73;2.17;;;11.10;85.40;;;;;;5333529;26;20529;-67
2024/04/20 12:40:53;;;;;;;6.97;2.03;;;11.10;83.00;;;;;;5335237;26;20479;-67
2024/04/20 12:43:23;;;;;;;8.10;1.90;;;10.80;84.50;;;;;;5333140;26;20487;-68
2024/04/20 12:45:55;;;;;;;6.30;1.40;;;11.20;84.00;;;;;;5334984;26;20558;-66
2024/04/20 12:48:25;;;;;;;6.40;1.50;;;11.00;79.30;;;;;;5329429;26;20939;-65
2024/04/20 12:50:55;;;;;;;6.50;1.30;;;11.00;75.00;;;;;;5335305;26;20531;-66
2024/04/20 12:53:29;;;;;;;6.50;1.67;;;10.90;74.80;;;;;;5332595;26;20476;-67
2024/04/20 12:55:59;;;;;;;8.87;1.70;;;11.30;75.40;;;;;;5336550;26;20475;-65
2024/04/20 12:58:29;;;;;;;7.37;1.70;;;12.00;74.50;;;;;;5339921;26;20479;-67
2024/04/20 13:01:01;;;;;;;6.70;1.43;;;12.20;68.80;;;;;;5334570;26;20475;-72
2024/04/20 13:03:31;;;;;;;6.53;1.40;;;11.90;71.40;;;;;;5335678;26;20570;-71
2024/04/20 13:06:03;;;;;;;7.30;1.90;;;11.70;73.00;;;;;;5330475;26;20486;-71
2024/04/20 13:08:32;;;;;;;8.30;2.30;;;11.80;72.30;;;;;;5332229;26;20481;-72
2024/04/20 13:11:02;;;;;;;7.60;1.50;;;11.70;70.70;;;;;;5337508;26;20488;-70